Time;durP1;ratioP1;P1;durP2;ratioP2;P2;SDS_P1;SDS_P2;PMS_P1;PMS_P2;Temp;Humidity;BMP_temperature;BMP_pressure;BME280_temperature;BME280_humidity;BME280_pressure;Samples;Min_cycle;Max_cycle;Signal;HPM_P1;HPM_P2
2023/05/28 00:00:47;;;;;;;1.08;0.85;;;;;;;;;;5021048;28;20050;-62
2023/05/28 00:03:17;;;;;;;2.55;0.75;;;;;;;;;;5021132;28;20057;-63
2023/05/28 00:05:43;;;;;;;5.35;1.38;;;;;;;;;;5021327;28;20045;-63
2023/05/28 00:08:09;;;;;;;1.42;1.20;;;;;;;;;;5020842;28;20352;-63
2023/05/28 00:10:35;;;;;;;2.38;1.15;;;;;;;;;;5022211;28;20117;-63
2023/05/28 00:13:01;;;;;;;1.55;1.15;;;;;;;;;;5020042;28;20029;-63
2023/05/28 00:15:27;;;;;;;1.20;1.10;;;;;;;;;;5022011;28;20042;-63
2023/05/28 00:17:54;;;;;;;1.70;1.15;;;;;;;;;;5016519;28;20037;-63
2023/05/28 00:20:20;;;;;;;1.20;1.02;;;;;;;;;;5022150;28;20118;-63
2023/05/28 00:22:46;;;;;;;1.73;0.98;;;;;;;;;;5021234;28;20041;-63
2023/05/28 00:25:13;;;;;;;1.08;0.80;;;;;;;;;;5021466;28;20402;-63
2023/05/28 00:27:39;;;;;;;2.15;1.30;;;;;;;;;;5021946;28;20069;-63
2023/05/28 00:30:06;;;;;;;1.48;0.70;;;;;;;;;;5020160;28;20202;-63
2023/05/28 00:32:32;;;;;;;2.00;1.10;;;;;;;;;;5021102;28;20045;-63
2023/05/28 00:34:58;;;;;;;1.33;1.10;;;;;;;;;;5019569;28;20041;-62
2023/05/28 00:37:24;;;;;;;3.10;1.38;;;;;;;;;;5026033;28;20034;-63
2023/05/28 00:39:50;;;;;;;1.92;1.08;;;;;;;;;;5024311;28;20041;-63
2023/05/28 00:42:16;;;;;;;1.10;0.88;;;;;;;;;;5025413;28;20044;-63
2023/05/28 00:44:42;;;;;;;1.38;0.85;;;;;;;;;;5025838;28;20036;-63
2023/05/28 00:47:09;;;;;;;2.33;1.10;;;;;;;;;;5023871;28;20050;-63
2023/05/28 00:49:35;;;;;;;0.93;0.65;;;;;;;;;;5025957;28;20496;-63
2023/05/28 00:52:02;;;;;;;1.83;0.98;;;;;;;;;;5024217;28;20347;-63
2023/05/28 00:54:29;;;;;;;2.58;0.98;;;;;;;;;;5024966;28;20080;-63
2023/05/28 00:56:57;;;;;;;1.35;0.95;;;;;;;;;;5023950;28;20514;-63
2023/05/28 00:59:24;;;;;;;1.27;1.05;;;;;;;;;;5025184;28;20041;-63
2023/05/28 01:01:50;;;;;;;1.20;1.10;;;;;;;;;;5022044;28;20054;-63
2023/05/28 01:04:16;;;;;;;2.05;1.02;;;;;;;;;;5025554;28;20055;-63
2023/05/28 01:06:43;;;;;;;1.38;1.08;;;;;;;;;;5025111;28;20045;-62
2023/05/28 01:09:09;;;;;;;2.15;1.00;;;;;;;;;;5019186;28;20524;-62
2023/05/28 01:11:36;;;;;;;1.50;0.88;;;;;;;;;;5021328;28;20544;-63
2023/05/28 01:14:03;;;;;;;1.52;0.90;;;;;;;;;;5021451;28;20394;-63
2023/05/28 01:16:29;;;;;;;1.13;1.00;;;;;;;;;;5025064;28;20044;-63
2023/05/28 01:18:56;;;;;;;3.45;1.20;;;;;;;;;;5023552;28;20052;-63
2023/05/28 01:21:23;;;;;;;1.70;1.10;;;;;;;;;;5023520;28;20524;-63
2023/05/28 01:23:49;;;;;;;2.15;1.10;;;;;;;;;;5020918;28;20044;-63
2023/05/28 01:26:16;;;;;;;1.98;1.33;;;;;;;;;;5024746;28;20133;-63
2023/05/28 01:28:48;;;;;;;1.75;1.30;;;;;;;;;;5017746;28;20041;-63
2023/05/28 01:31:15;;;;;;;2.00;1.20;;;;;;;;;;5024620;28;20045;-63
2023/05/28 01:33:41;;;;;;;1.83;0.98;;;;;;;;;;5024958;28;20030;-63
2023/05/28 01:36:10;;;;;;;1.27;0.80;;;;;;;;;;5022220;28;20038;-63
2023/05/28 01:38:38;;;;;;;2.30;1.40;;;;;;;;;;5024472;28;20503;-63
2023/05/28 01:41:05;;;;;;;1.35;1.25;;;;;;;;;;5022682;28;20438;-62
2023/05/28 01:43:31;;;;;;;2.55;1.20;;;;;;;;;;5024297;28;20366;-62
2023/05/28 01:45:57;;;;;;;1.52;1.08;;;;;;;;;;5018344;28;20042;-62
2023/05/28 01:48:23;;;;;;;1.38;0.70;;;;;;;;;;5024102;28;20490;-63
2023/05/28 01:50:49;;;;;;;0.93;0.80;;;;;;;;;;5022788;28;20041;-63
2023/05/28 01:53:15;;;;;;;0.70;0.68;;;;;;;;;;5024221;28;20127;-63
2023/05/28 01:55:41;;;;;;;1.27;1.00;;;;;;;;;;5024588;28;20081;-63
2023/05/28 01:58:08;;;;;;;0.90;0.73;;;;;;;;;;5022301;28;20045;-63
2023/05/28 02:00:36;;;;;;;1.67;0.88;;;;;;;;;;5024651;28;20045;-63
2023/05/28 02:03:04;;;;;;;2.15;0.90;;;;;;;;;;5022856;28;20095;-63
2023/05/28 02:05:30;;;;;;;2.75;1.27;;;;;;;;;;5019356;28;20041;-63
2023/05/28 02:07:58;;;;;;;1.55;1.00;;;;;;;;;;5004604;28;20073;-63
2023/05/28 02:10:24;;;;;;;2.67;1.00;;;;;;;;;;5023284;28;20485;-63
2023/05/28 02:12:50;;;;;;;1.98;1.33;;;;;;;;;;5022869;28;20041;-63
2023/05/28 02:15:16;;;;;;;1.38;0.85;;;;;;;;;;5023416;28;20049;-63
2023/05/28 02:17:43;;;;;;;2.10;1.10;;;;;;;;;;5023709;28;20045;-63
2023/05/28 02:20:10;;;;;;;1.73;1.15;;;;;;;;;;5021772;28;20240;-63
2023/05/28 02:22:36;;;;;;;0.60;0.52;;;;;;;;;;5019243;28;20120;-63
2023/05/28 02:25:02;;;;;;;1.92;1.08;;;;;;;;;;5020373;28;20601;-63
2023/05/28 02:27:28;;;;;;;2.13;1.00;;;;;;;;;;5023963;28;20041;-63
2023/05/28 02:29:54;;;;;;;1.15;0.80;;;;;;;;;;5022691;28;20191;-63
2023/05/28 02:32:21;;;;;;;1.33;0.80;;;;;;;;;;5022755;28;20033;-63
2023/05/28 02:34:47;;;;;;;0.85;0.70;;;;;;;;;;5022640;28;20108;-63
2023/05/28 02:37:13;;;;;;;1.05;0.70;;;;;;;;;;5023223;28;20142;-63
2023/05/28 02:39:39;;;;;;;1.15;0.77;;;;;;;;;;5022865;28;20076;-63
2023/05/28 02:42:05;;;;;;;1.40;1.02;;;;;;;;;;5021727;28;20068;-63
2023/05/28 02:44:31;;;;;;;0.90;0.70;;;;;;;;;;5023739;28;20044;-63
2023/05/28 02:46:57;;;;;;;0.80;0.70;;;;;;;;;;5021063;28;20098;-62
2023/05/28 02:49:23;;;;;;;1.60;0.90;;;;;;;;;;5022042;28;20410;-62
2023/05/28 02:51:49;;;;;;;1.45;0.98;;;;;;;;;;5022541;28;20037;-62
2023/05/28 02:54:15;;;;;;;1.35;1.08;;;;;;;;;;5004203;28;20438;-62
2023/05/28 02:56:41;;;;;;;1.48;0.82;;;;;;;;;;5023037;28;20435;-62
2023/05/28 02:59:07;;;;;;;1.67;1.58;;;;;;;;;;5017295;28;20084;-63
2023/05/28 03:01:33;;;;;;;1.20;1.00;;;;;;;;;;5021995;28;20046;-63
2023/05/28 03:03:59;;;;;;;1.67;0.88;;;;;;;;;;5020220;28;20085;-63
2023/05/28 03:06:26;;;;;;;1.00;0.90;;;;;;;;;;5022137;28;20050;-63
2023/05/28 03:08:52;;;;;;;0.82;0.82;;;;;;;;;;5020835;28;20045;-63
2023/05/28 03:11:18;;;;;;;2.38;1.10;;;;;;;;;;5021700;28;20041;-63
2023/05/28 03:13:45;;;;;;;1.52;1.08;;;;;;;;;;5022439;28;20034;-63
2023/05/28 03:16:11;;;;;;;2.55;1.30;;;;;;;;;;5022158;28;20488;-63
2023/05/28 03:18:37;;;;;;;1.70;1.08;;;;;;;;;;5022382;28;20072;-63
2023/05/28 03:21:03;;;;;;;3.45;1.50;;;;;;;;;;5019992;28;20061;-63
2023/05/28 03:23:29;;;;;;;1.35;1.17;;;;;;;;;;5022647;28;20041;-63
2023/05/28 03:25:55;;;;;;;1.15;1.05;;;;;;;;;;5020408;28;20325;-63
2023/05/28 03:28:21;;;;;;;1.23;1.02;;;;;;;;;;5021058;28;20525;-63
2023/05/28 03:30:47;;;;;;;1.35;1.10;;;;;;;;;;5020907;28;20205;-63
2023/05/28 03:33:13;;;;;;;1.40;1.10;;;;;;;;;;5021775;28;20038;-63
2023/05/28 03:35:39;;;;;;;1.35;0.80;;;;;;;;;;5018659;28;20045;-63
2023/05/28 03:38:05;;;;;;;1.75;1.13;;;;;;;;;;5020124;28;20476;-63
2023/05/28 03:40:32;;;;;;;1.65;1.25;;;;;;;;;;5017857;28;20482;-63
2023/05/28 03:42:58;;;;;;;1.73;0.95;;;;;;;;;;5020300;28;20033;-63
2023/05/28 03:45:24;;;;;;;1.25;0.90;;;;;;;;;;5022439;28;20080;-63
2023/05/28 03:47:50;;;;;;;1.83;0.90;;;;;;;;;;5016491;28;20041;-63
2023/05/28 03:50:16;;;;;;;1.20;1.05;;;;;;;;;;5020264;28;20112;-63
2023/05/28 03:52:42;;;;;;;1.45;0.80;;;;;;;;;;5022912;28;20045;-63
2023/05/28 03:55:08;;;;;;;1.65;1.10;;;;;;;;;;5020423;28;20045;-63
2023/05/28 03:57:34;;;;;;;0.80;0.80;;;;;;;;;;5003217;28;20128;-63
2023/05/28 04:00:00;;;;;;;1.48;1.25;;;;;;;;;;5020901;28;20037;-63
2023/05/28 04:02:27;;;;;;;1.52;0.95;;;;;;;;;;5021337;28;20046;-63
2023/05/28 04:04:53;;;;;;;2.65;1.20;;;;;;;;;;5020627;28;20146;-63
2023/05/28 04:07:19;;;;;;;1.27;1.00;;;;;;;;;;5020783;28;20049;-63
2023/05/28 04:09:45;;;;;;;1.35;0.77;;;;;;;;;;5019330;28;20055;-63
2023/05/28 04:12:12;;;;;;;2.10;1.42;;;;;;;;;;5019543;28;20046;-63
2023/05/28 04:14:39;;;;;;;1.10;1.00;;;;;;;;;;5019156;28;20048;-63
2023/05/28 04:17:05;;;;;;;2.08;1.70;;;;;;;;;;5018638;28;20126;-63
2023/05/28 04:19:31;;;;;;;1.17;1.00;;;;;;;;;;5021640;28;20038;-63
2023/05/28 04:21:57;;;;;;;1.13;0.90;;;;;;;;;;5019910;28;20175;-63
2023/05/28 04:24:23;;;;;;;1.23;0.80;;;;;;;;;;5020844;28;20120;-63
2023/05/28 04:26:49;;;;;;;1.95;0.80;;;;;;;;;;5021350;28;20037;-63
2023/05/28 04:29:15;;;;;;;1.45;1.25;;;;;;;;;;5020467;28;20041;-63
2023/05/28 04:31:43;;;;;;;1.60;1.30;;;;;;;;;;5020760;28;20084;-63
2023/05/28 04:34:09;;;;;;;1.67;1.17;;;;;;;;;;5019620;28;20096;-63
2023/05/28 04:36:36;;;;;;;1.75;1.15;;;;;;;;;;5021553;28;20056;-63
2023/05/28 04:39:05;;;;;;;1.83;1.00;;;;;;;;;;5018576;28;20072;-63
2023/05/28 04:41:31;;;;;;;2.08;0.90;;;;;;;;;;5020181;28;20045;-63
2023/05/28 04:43:57;;;;;;;1.40;0.95;;;;;;;;;;5020264;28;20200;-63
2023/05/28 04:46:25;;;;;;;1.90;1.10;;;;;;;;;;5017499;28;20502;-63
2023/05/28 04:48:51;;;;;;;1.00;0.93;;;;;;;;;;5019030;28;20512;-63
2023/05/28 04:51:18;;;;;;;1.42;0.98;;;;;;;;;;5020864;28;20046;-63
2023/05/28 04:53:44;;;;;;;1.65;1.30;;;;;;;;;;5021523;28;20064;-63
2023/05/28 04:56:10;;;;;;;1.35;1.20;;;;;;;;;;5020160;28;20041;-63
2023/05/28 04:58:36;;;;;;;1.45;1.23;;;;;;;;;;5021073;28;20119;-63
2023/05/28 05:01:02;;;;;;;1.98;1.48;;;;;;;;;;5019936;28;20034;-63
2023/05/28 05:03:31;;;;;;;1.67;1.52;;;;;;;;;;5019686;28;20045;-63
2023/05/28 05:05:57;;;;;;;1.92;1.30;;;;;;;;;;5015954;28;20038;-63
2023/05/28 05:08:23;;;;;;;1.73;1.40;;;;;;;;;;5020448;28;20084;-63
2023/05/28 05:10:49;;;;;;;2.90;1.38;;;;;;;;;;5020123;28;20037;-62
2023/05/28 05:13:15;;;;;;;1.10;1.00;;;;;;;;;;5018420;28;20115;-63
2023/05/28 05:15:41;;;;;;;1.95;1.25;;;;;;;;;;5021941;28;20516;-63
2023/05/28 05:18:07;;;;;;;0.70;0.70;;;;;;;;;;5015721;28;20286;-63
2023/05/28 05:20:33;;;;;;;3.25;1.70;;;;;;;;;;5021964;28;20033;-63
2023/05/28 05:22:59;;;;;;;2.67;1.45;;;;;;;;;;5021205;28;20033;-62
2023/05/28 05:25:25;;;;;;;3.13;1.30;;;;;;;;;;5019945;28;20049;-62
2023/05/28 05:27:52;;;;;;;1.58;1.30;;;;;;;;;;5023660;28;20095;-62
2023/05/28 05:30:18;;;;;;;6.05;2.10;;;;;;;;;;5023575;28;20638;-63
2023/05/28 05:32:44;;;;;;;1.75;1.20;;;;;;;;;;5025787;28;20108;-63
2023/05/28 05:35:11;;;;;;;1.20;1.10;;;;;;;;;;5022656;28;20045;-63
2023/05/28 05:37:37;;;;;;;1.77;1.50;;;;;;;;;;5024745;28;20041;-63
2023/05/28 05:40:05;;;;;;;2.63;1.35;;;;;;;;;;5023027;28;20040;-63
2023/05/28 05:42:31;;;;;;;3.42;2.17;;;;;;;;;;5018558;28;20045;-63
2023/05/28 05:44:57;;;;;;;4.05;3.08;;;;;;;;;;5023584;28;20452;-63
2023/05/28 05:47:23;;;;;;;2.97;2.38;;;;;;;;;;5023929;28;20037;-63
2023/05/28 05:49:49;;;;;;;3.67;2.40;;;;;;;;;;5023262;28;20379;-63
2023/05/28 05:52:15;;;;;;;4.65;3.45;;;;;;;;;;5023783;28;20056;-63
2023/05/28 05:54:41;;;;;;;3.92;2.50;;;;;;;;;;5006416;28;20508;-63
2023/05/28 05:57:07;;;;;;;3.03;1.98;;;;;;;;;;5021922;28;20049;-63
2023/05/28 05:59:33;;;;;;;3.25;2.10;;;;;;;;;;5018576;28;20025;-63
2023/05/28 06:02:00;;;;;;;4.90;2.03;;;;;;;;;;5022564;28;20092;-63
2023/05/28 06:04:31;;;;;;;2.65;1.98;;;;;;;;;;5015811;28;20148;-63
2023/05/28 06:06:57;;;;;;;4.53;2.67;;;;;;;;;;5017660;28;20049;-63
2023/05/28 06:09:24;;;;;;;3.30;2.03;;;;;;;;;;4988877;28;20045;-63
2023/05/28 06:11:50;;;;;;;7.55;2.80;;;;;;;;;;5019424;28;20037;-63
2023/05/28 06:14:16;;;;;;;6.55;2.90;;;;;;;;;;5022746;28;20045;-63
2023/05/28 06:16:42;;;;;;;5.90;2.55;;;;;;;;;;5022572;28;20042;-63
2023/05/28 06:19:08;;;;;;;5.20;2.72;;;;;;;;;;5022173;28;20158;-63
2023/05/28 06:21:35;;;;;;;3.60;1.92;;;;;;;;;;5011877;28;20077;-63
2023/05/28 06:24:01;;;;;;;3.33;2.08;;;;;;;;;;5021485;28;20367;-63
2023/05/28 06:26:27;;;;;;;2.63;1.70;;;;;;;;;;5022487;28;20565;-63
2023/05/28 06:28:53;;;;;;;5.25;3.13;;;;;;;;;;5022699;28;20030;-63
2023/05/28 06:31:19;;;;;;;9.88;2.97;;;;;;;;;;5021516;28;20414;-63
2023/05/28 06:33:46;;;;;;;5.03;2.90;;;;;;;;;;5021185;28;20045;-63
2023/05/28 06:36:12;;;;;;;6.88;2.88;;;;;;;;;;5022091;28;20540;-63
2023/05/28 06:38:38;;;;;;;3.88;2.70;;;;;;;;;;5022809;28;20306;-63
2023/05/28 06:41:04;;;;;;;4.72;2.80;;;;;;;;;;5019247;28;20077;-63
2023/05/28 06:43:30;;;;;;;6.30;2.55;;;;;;;;;;5022158;28;20516;-63
2023/05/28 06:45:56;;;;;;;3.58;2.63;;;;;;;;;;5021557;28;20179;-63
2023/05/28 06:48:22;;;;;;;3.53;2.58;;;;;;;;;;5022921;28;20041;-63
2023/05/28 06:50:48;;;;;;;3.33;2.90;;;;;;;;;;5022928;28;20501;-63
2023/05/28 06:53:15;;;;;;;4.10;2.90;;;;;;;;;;5020899;28;20065;-63
2023/05/28 06:55:41;;;;;;;9.25;5.82;;;;;;;;;;5022952;28;20042;-63
2023/05/28 06:58:07;;;;;;;10.02;5.95;;;;;;;;;;5019182;28;20095;-63
2023/05/28 07:00:32;;;;;;;7.10;4.82;;;;;;;;;;5001498;28;20786;-63
2023/05/28 07:02:59;;;;;;;8.93;4.85;;;;;;;;;;5003793;28;20082;-63
2023/05/28 07:05:25;;;;;;;5.10;3.88;;;;;;;;;;5021569;28;20037;-63
2023/05/28 07:07:51;;;;;;;6.20;4.18;;;;;;;;;;5021475;28;20430;-63
2023/05/28 07:10:17;;;;;;;6.07;3.80;;;;;;;;;;5017815;28;20509;-63
2023/05/28 07:12:43;;;;;;;6.75;4.05;;;;;;;;;;5022477;28;20045;-63
2023/05/28 07:15:10;;;;;;;3.30;2.95;;;;;;;;;;5021245;28;20405;-63
2023/05/28 07:17:36;;;;;;;3.90;3.25;;;;;;;;;;5022795;28;20163;-63
2023/05/28 07:20:04;;;;;;;3.90;2.92;;;;;;;;;;5019133;28;20182;-63
2023/05/28 07:22:30;;;;;;;4.18;2.35;;;;;;;;;;5012878;28;20140;-63
2023/05/28 07:24:56;;;;;;;4.05;2.70;;;;;;;;;;5017891;28;20045;-63
2023/05/28 07:27:22;;;;;;;3.83;3.08;;;;;;;;;;5022107;28;20045;-63
2023/05/28 07:29:48;;;;;;;3.20;2.40;;;;;;;;;;5023343;28;20041;-63
2023/05/28 07:32:14;;;;;;;4.45;2.65;;;;;;;;;;5022599;28;20068;-63
2023/05/28 07:34:41;;;;;;;3.70;2.10;;;;;;;;;;5023002;28;20034;-63
2023/05/28 07:37:07;;;;;;;3.75;2.42;;;;;;;;;;5020802;28;20045;-63
2023/05/28 07:39:33;;;;;;;4.55;2.13;;;;;;;;;;5023130;28;20033;-63
2023/05/28 07:41:59;;;;;;;2.80;2.05;;;;;;;;;;5021817;28;20037;-63
2023/05/28 07:44:25;;;;;;;1.70;1.35;;;;;;;;;;5002893;28;20038;-63
2023/05/28 07:46:51;;;;;;;2.80;1.80;;;;;;;;;;5022828;28;20144;-63
2023/05/28 07:49:17;;;;;;;2.50;1.80;;;;;;;;;;5009029;28;20045;-63
2023/05/28 07:51:43;;;;;;;3.47;2.30;;;;;;;;;;5014775;28;20136;-64
2023/05/28 07:54:10;;;;;;;3.85;2.22;;;;;;;;;;5012662;28;20317;-67
2023/05/28 07:56:36;;;;;;;4.57;2.13;;;;;;;;;;5008490;28;20053;-68
2023/05/28 07:59:04;;;;;;;3.10;2.30;;;;;;;;;;5022829;28;20048;-66
2023/05/28 08:01:30;;;;;;;3.78;2.45;;;;;;;;;;5021987;28;20042;-65
2023/05/28 08:03:56;;;;;;;4.88;2.92;;;;;;;;;;5020161;28;20116;-65
2023/05/28 08:06:22;;;;;;;3.22;2.55;;;;;;;;;;5022973;28;20041;-65
2023/05/28 08:08:48;;;;;;;3.03;2.17;;;;;;;;;;5024126;28;20038;-65
2023/05/28 08:11:14;;;;;;;4.85;2.15;;;;;;;;;;5024175;28;20043;-65
2023/05/28 08:13:43;;;;;;;2.90;2.33;;;;;;;;;;5014770;28;20056;-66
2023/05/28 08:16:13;;;;;;;5.63;2.70;;;;;;;;;;5020292;28;20529;-65
2023/05/28 08:18:39;;;;;;;2.97;2.15;;;;;;;;;;5024368;28;20072;-65
2023/05/28 08:21:06;;;;;;;3.00;2.20;;;;;;;;;;5006089;28;20487;-65
2023/05/28 08:23:34;;;;;;;3.35;2.35;;;;;;;;;;5023316;28;20080;-65
2023/05/28 08:26:03;;;;;;;4.75;3.17;;;;;;;;;;5023786;28;20056;-65
2023/05/28 08:28:29;;;;;;;2.72;2.42;;;;;;;;;;5024544;28;20456;-64
2023/05/28 08:30:55;;;;;;;6.30;3.00;;;;;;;;;;5022658;28;20046;-65
2023/05/28 08:33:22;;;;;;;2.60;2.05;;;;;;;;;;5024475;28;20181;-65
2023/05/28 08:35:48;;;;;;;4.22;2.42;;;;;;;;;;5023783;28;20382;-65
2023/05/28 08:38:14;;;;;;;4.07;2.70;;;;;;;;;;5023806;28;20033;-65
2023/05/28 08:40:41;;;;;;;5.40;3.28;;;;;;;;;;5024233;28;20041;-65
2023/05/28 08:43:07;;;;;;;3.50;2.80;;;;;;;;;;5023876;28;20074;-64
2023/05/28 08:45:35;;;;;;;4.20;3.42;;;;;;;;;;5018479;28;20069;-65
2023/05/28 08:48:01;;;;;;;3.80;2.90;;;;;;;;;;4987498;28;20065;-64
2023/05/28 08:50:28;;;;;;;3.55;3.15;;;;;;;;;;5020817;28;20091;-64
2023/05/28 08:52:54;;;;;;;4.30;3.25;;;;;;;;;;5013574;28;20038;-64
2023/05/28 08:55:20;;;;;;;7.53;3.50;;;;;;;;;;5006062;28;20096;-64
2023/05/28 08:57:47;;;;;;;3.30;2.75;;;;;;;;;;4988223;28;20417;-63
2023/05/28 09:00:13;;;;;;;3.95;2.83;;;;;;;;;;5007090;28;20038;-63
2023/05/28 09:02:39;;;;;;;5.18;3.22;;;;;;;;;;5003275;28;20100;-63
2023/05/28 09:05:06;;;;;;;5.05;3.25;;;;;;;;;;4990634;28;20054;-63
2023/05/28 09:07:32;;;;;;;3.55;3.08;;;;;;;;;;4997083;28;20100;-63
2023/05/28 09:09:58;;;;;;;3.28;2.97;;;;;;;;;;4996907;28;20046;-63
2023/05/28 09:12:24;;;;;;;7.18;3.10;;;;;;;;;;5004198;28;20057;-63
2023/05/28 09:14:53;;;;;;;3.70;3.08;;;;;;;;;;4998305;28;20446;-63
2023/05/28 09:17:38;;;;;;;3.58;3.20;;;;;;;;;;5010305;28;20466;-63
2023/05/28 09:20:12;;;;;;;5.55;3.63;;;;;;;;;;5011900;28;20710;-63
2023/05/28 09:22:38;;;;;;;6.05;3.78;;;;;;;;;;5000521;28;20057;-63
2023/05/28 09:25:06;;;;;;;4.68;3.47;;;;;;;;;;4993880;28;20033;-63
2023/05/28 09:27:32;;;;;;;3.95;3.65;;;;;;;;;;4992163;28;20529;-63
2023/05/28 09:30:04;;;;;;;4.93;3.90;;;;;;;;;;4989219;28;20046;-63
2023/05/28 09:32:30;;;;;;;5.18;3.55;;;;;;;;;;4992528;28;20168;-63
2023/05/28 09:34:56;;;;;;;4.60;3.58;;;;;;;;;;4989673;28;20521;-64
2023/05/28 09:37:23;;;;;;;6.20;3.40;;;;;;;;;;4995522;28;20509;-63
2023/05/28 09:40:00;;;;;;;5.25;3.78;;;;;;;;;;5006018;28;20096;-63
2023/05/28 09:42:25;;;;;;;3.80;3.28;;;;;;;;;;5003605;28;20046;-64
2023/05/28 09:44:51;;;;;;;3.65;3.03;;;;;;;;;;5004000;28;20391;-64
2023/05/28 09:47:21;;;;;;;4.65;3.42;;;;;;;;;;4998293;28;20045;-64
2023/05/28 09:49:49;;;;;;;4.47;3.58;;;;;;;;;;5008093;28;20459;-63
2023/05/28 09:52:19;;;;;;;4.55;3.08;;;;;;;;;;5006506;28;20097;-63
2023/05/28 09:54:48;;;;;;;5.07;3.55;;;;;;;;;;5009646;28;20480;-63
2023/05/28 09:57:15;;;;;;;3.17;2.88;;;;;;;;;;5016081;28;20038;-64
2023/05/28 09:59:44;;;;;;;5.40;3.60;;;;;;;;;;5006131;28;20461;-64
2023/05/28 10:02:23;;;;;;;5.07;3.38;;;;;;;;;;5007602;28;20058;-64
2023/05/28 10:04:53;;;;;;;5.82;3.97;;;;;;;;;;5005715;28;20034;-64
2023/05/28 10:07:20;;;;;;;3.78;3.17;;;;;;;;;;5009496;28;20051;-65
2023/05/28 10:09:46;;;;;;;3.10;2.78;;;;;;;;;;5020238;28;20052;-65
2023/05/28 10:12:20;;;;;;;3.47;2.67;;;;;;;;;;5022344;28;20055;-65
2023/05/28 10:14:47;;;;;;;2.80;2.50;;;;;;;;;;5025492;28;20033;-65
2023/05/28 10:17:14;;;;;;;4.55;3.45;;;;;;;;;;5024710;28;20084;-65
2023/05/28 10:19:40;;;;;;;5.90;2.95;;;;;;;;;;5025718;28;20033;-65
2023/05/28 10:22:07;;;;;;;2.88;2.20;;;;;;;;;;5006953;28;20703;-66
2023/05/28 10:24:34;;;;;;;5.88;3.15;;;;;;;;;;5022260;28;20124;-65
2023/05/28 10:27:00;;;;;;;3.22;2.22;;;;;;;;;;5025001;28;20045;-63
2023/05/28 10:29:27;;;;;;;2.47;1.92;;;;;;;;;;5018944;28;20045;-66
2023/05/28 10:32:03;;;;;;;2.17;1.75;;;;;;;;;;5006425;28;20052;-63
2023/05/28 10:34:30;;;;;;;3.40;1.63;;;;;;;;;;5024359;28;20386;-63
2023/05/28 10:36:56;;;;;;;2.22;1.50;;;;;;;;;;5024691;28;20471;-63
2023/05/28 10:39:22;;;;;;;3.75;2.20;;;;;;;;;;5024755;28;20052;-63
2023/05/28 10:41:49;;;;;;;2.78;1.90;;;;;;;;;;5021190;28;20042;-63
2023/05/28 10:44:15;;;;;;;4.07;2.17;;;;;;;;;;5024306;28;20084;-63
2023/05/28 10:46:41;;;;;;;3.15;2.28;;;;;;;;;;4989961;28;20045;-63
2023/05/28 10:49:10;;;;;;;3.90;2.50;;;;;;;;;;5025438;28;20045;-63
2023/05/28 10:51:56;;;;;;;2.05;1.65;;;;;;;;;;5025249;28;20045;-63
2023/05/28 10:54:47;;;;;;;3.78;2.20;;;;;;;;;;5026019;28;20520;-63
2023/05/28 10:57:15;;;;;;;3.28;2.20;;;;;;;;;;5026525;28;20494;-63
2023/05/28 10:59:49;;;;;;;1.92;1.40;;;;;;;;;;5025759;28;20417;-63
2023/05/28 11:02:21;;;;;;;4.03;2.17;;;;;;;;;;5026274;28;20345;-63
2023/05/28 11:04:50;;;;;;;2.22;1.80;;;;;;;;;;5024444;28;20124;-63
2023/05/28 11:07:17;;;;;;;3.35;2.42;;;;;;;;;;5024528;28;20339;-63
2023/05/28 11:09:47;;;;;;;2.78;2.28;;;;;;;;;;5024709;28;20069;-63
2023/05/28 11:12:13;;;;;;;2.92;1.73;;;;;;;;;;5023603;28;20410;-63
2023/05/28 11:14:39;;;;;;;4.47;2.72;;;;;;;;;;5024092;28;20321;-63
2023/05/28 11:17:06;;;;;;;5.07;2.55;;;;;;;;;;5023269;28;20041;-63
2023/05/28 11:19:38;;;;;;;3.17;2.13;;;;;;;;;;5023302;28;20116;-63
2023/05/28 11:22:04;;;;;;;;;;;;;;;;;;5025817;28;20589;-63
2023/05/28 11:24:32;;;;;;;5.70;2.35;;;;;;;;;;5025488;28;19944;-63
2023/05/28 11:26:58;;;;;;;2.65;1.85;;;;;;;;;;5024671;28;20045;-63
2023/05/28 11:29:24;;;;;;;6.70;2.40;;;;;;;;;;5025620;28;20041;-63
2023/05/28 11:31:50;;;;;;;4.28;1.95;;;;;;;;;;5025125;28;20490;-63
2023/05/28 11:34:20;;;;;;;3.03;2.03;;;;;;;;;;5024773;28;20045;-63
2023/05/28 11:36:46;;;;;;;3.45;2.00;;;;;;;;;;5025613;28;20057;-63
2023/05/28 11:39:12;;;;;;;5.18;2.78;;;;;;;;;;5025713;28;20060;-63
2023/05/28 11:41:38;;;;;;;4.20;2.42;;;;;;;;;;5024920;28;20041;-63
2023/05/28 11:44:21;;;;;;;2.42;2.03;;;;;;;;;;5025333;28;20366;-63
2023/05/28 11:46:50;;;;;;;6.05;2.88;;;;;;;;;;5024887;28;20521;-63
2023/05/28 11:49:16;;;;;;;3.97;2.40;;;;;;;;;;5024770;28;20106;-63
2023/05/28 11:51:42;;;;;;;4.50;1.92;;;;;;;;;;5025585;28;20037;-63
2023/05/28 11:54:08;;;;;;;2.85;1.83;;;;;;;;;;5024359;28;20048;-63
2023/05/28 11:56:35;;;;;;;3.60;2.00;;;;;;;;;;5025079;28;20217;-63
2023/05/28 11:59:02;;;;;;;3.42;2.10;;;;;;;;;;5025045;28;20041;-63
2023/05/28 12:01:31;;;;;;;3.95;2.38;;;;;;;;;;5024317;28;20050;-63
2023/05/28 12:04:05;;;;;;;4.15;2.45;;;;;;;;;;5024414;28;20061;-63
2023/05/28 12:06:35;;;;;;;3.35;1.98;;;;;;;;;;5024810;28;20061;-63
2023/05/28 12:09:08;;;;;;;6.70;2.80;;;;;;;;;;5003001;28;20525;-63
2023/05/28 12:11:34;;;;;;;7.53;2.70;;;;;;;;;;5004610;28;20257;-63
2023/05/28 12:14:09;;;;;;;5.32;1.83;;;;;;;;;;5004492;28;20497;-63
2023/05/28 12:16:44;;;;;;;5.43;2.25;;;;;;;;;;5004331;28;20053;-63
2023/05/28 12:19:14;;;;;;;4.00;1.98;;;;;;;;;;5005030;28;20107;-63
2023/05/28 12:21:40;;;;;;;4.93;1.58;;;;;;;;;;5005328;28;20042;-63
2023/05/28 12:24:26;;;;;;;3.63;1.85;;;;;;;;;;5003776;28;20525;-63
2023/05/28 12:26:52;;;;;;;4.60;2.25;;;;;;;;;;4986938;28;20449;-63
2023/05/28 12:29:18;;;;;;;10.10;2.65;;;;;;;;;;5003649;28;20048;-63
2023/05/28 12:31:44;;;;;;;6.93;2.40;;;;;;;;;;5005668;28;20456;-63
2023/05/28 12:34:10;;;;;;;3.25;1.98;;;;;;;;;;5005000;28;20050;-63
2023/05/28 12:36:36;;;;;;;5.68;1.95;;;;;;;;;;5004102;28;20428;-63
2023/05/28 12:39:04;;;;;;;4.45;2.03;;;;;;;;;;5004473;28;20429;-63
2023/05/28 12:41:30;;;;;;;2.95;1.70;;;;;;;;;;5004809;28;20037;-63
2023/05/28 12:43:56;;;;;;;4.57;1.92;;;;;;;;;;5003682;28;20509;-63
2023/05/28 12:46:22;;;;;;;3.17;1.75;;;;;;;;;;5004753;28;20120;-63
2023/05/28 12:48:48;;;;;;;4.93;1.85;;;;;;;;;;5004444;28;20483;-63
2023/05/28 12:51:15;;;;;;;3.17;1.90;;;;;;;;;;5004634;28;20054;-63
2023/05/28 12:53:41;;;;;;;9.15;2.53;;;;;;;;;;5005111;28;20081;-63
2023/05/28 12:56:07;;;;;;;4.20;1.98;;;;;;;;;;5004352;28;20081;-63
2023/05/28 12:58:33;;;;;;;4.75;2.08;;;;;;;;;;5004072;28;20088;-63
2023/05/28 13:00:59;;;;;;;3.45;2.13;;;;;;;;;;5004301;28;20046;-63
2023/05/28 13:03:25;;;;;;;4.00;2.15;;;;;;;;;;5004455;28;20066;-63
2023/05/28 13:05:52;;;;;;;3.53;2.00;;;;;;;;;;5003730;28;20091;-63
2023/05/28 13:08:18;;;;;;;4.45;1.88;;;;;;;;;;5004582;28;20046;-63
2023/05/28 13:10:44;;;;;;;4.65;1.83;;;;;;;;;;5005442;28;20092;-63
2023/05/28 13:13:10;;;;;;;7.50;2.50;;;;;;;;;;5003888;28;20041;-63
2023/05/28 13:15:37;;;;;;;3.42;1.73;;;;;;;;;;5004595;28;20046;-63
2023/05/28 13:18:03;;;;;;;3.95;2.03;;;;;;;;;;5004275;28;20170;-63
2023/05/28 13:20:29;;;;;;;4.25;2.28;;;;;;;;;;5003855;28;20613;-63
2023/05/28 13:22:55;;;;;;;4.95;2.15;;;;;;;;;;5004382;28;20576;-63
2023/05/28 13:25:21;;;;;;;3.63;1.83;;;;;;;;;;5004252;28;20557;-63
2023/05/28 13:27:49;;;;;;;4.93;2.15;;;;;;;;;;5003948;28;20080;-63
2023/05/28 13:30:16;;;;;;;2.17;1.52;;;;;;;;;;5005243;28;20046;-63
2023/05/28 13:32:42;;;;;;;2.50;1.45;;;;;;;;;;5005801;28;20076;-63
2023/05/28 13:35:11;;;;;;;2.28;1.67;;;;;;;;;;5004246;28;20042;-63
2023/05/28 13:37:38;;;;;;;3.78;1.95;;;;;;;;;;5004199;28;20120;-63
2023/05/28 13:40:10;;;;;;;7.90;2.67;;;;;;;;;;5003205;28;20053;-63
2023/05/28 13:42:37;;;;;;;5.53;2.05;;;;;;;;;;5007199;28;20116;-63
2023/05/28 13:45:03;;;;;;;3.90;1.90;;;;;;;;;;5007529;28;20242;-63
2023/05/28 13:47:30;;;;;;;4.00;1.77;;;;;;;;;;5007185;28;20482;-63
2023/05/28 13:49:56;;;;;;;10.55;2.78;;;;;;;;;;5007438;28;20053;-63
2023/05/28 13:52:23;;;;;;;3.80;2.03;;;;;;;;;;5008029;28;20252;-63
2023/05/28 13:54:49;;;;;;;4.03;2.08;;;;;;;;;;5006530;28;20041;-63
2023/05/28 13:57:15;;;;;;;3.90;1.88;;;;;;;;;;5007899;28;20117;-63
2023/05/28 13:59:41;;;;;;;5.95;2.60;;;;;;;;;;5007720;28;20042;-63
2023/05/28 14:02:07;;;;;;;5.25;2.05;;;;;;;;;;5006235;28;20487;-63
2023/05/28 14:04:33;;;;;;;3.55;2.28;;;;;;;;;;5007794;28;20104;-63
2023/05/28 14:06:59;;;;;;;3.08;1.67;;;;;;;;;;5007417;28;20045;-63
2023/05/28 14:09:25;;;;;;;3.55;2.30;;;;;;;;;;5006776;28;20528;-63
2023/05/28 14:11:51;;;;;;;6.25;2.17;;;;;;;;;;5007236;28;20073;-63
2023/05/28 14:14:17;;;;;;;2.83;1.85;;;;;;;;;;5007299;28;20485;-63
2023/05/28 14:16:43;;;;;;;7.05;1.90;;;;;;;;;;5006979;28;20423;-63
2023/05/28 14:19:10;;;;;;;5.13;2.38;;;;;;;;;;5007022;28;20038;-63
2023/05/28 14:21:36;;;;;;;4.82;2.17;;;;;;;;;;5006878;28;20592;-63
2023/05/28 14:24:02;;;;;;;4.07;2.50;;;;;;;;;;5006166;28;20068;-63
2023/05/28 14:26:28;;;;;;;5.18;1.90;;;;;;;;;;5006989;28;20046;-63
2023/05/28 14:28:54;;;;;;;6.10;2.75;;;;;;;;;;5006054;28;20048;-63
2023/05/28 14:31:20;;;;;;;6.05;3.38;;;;;;;;;;5006915;28;20097;-63
2023/05/28 14:33:47;;;;;;;6.50;2.40;;;;;;;;;;5006537;28;20092;-63
2023/05/28 14:36:13;;;;;;;5.00;2.72;;;;;;;;;;5006355;28;20041;-63
2023/05/28 14:38:39;;;;;;;5.15;2.83;;;;;;;;;;5009009;28;20037;-63
2023/05/28 14:41:05;;;;;;;4.20;2.63;;;;;;;;;;5020462;28;20061;-63